Ilirska Bistrica, Slovenia

12:11 PM CET on Maret 04, 2015 (GMT +0100)
Knežak | Change Station
CLOSE
Current Station
Personal Weather Stations
Location: Knežak, ILIRSKA BISTRICA
Elevation: 1929 ft
Nearby Weather Stations

Elev 1929 ft 45.62 °N, 14.25 °E | Updated 1 minute ago

Berawan
Berawan
48.6 °F
Feels Like 49 °F
N
0.0
Angin Variable Angin from Arah Utara
Gusts 0.0 mph

Siang Ini
High -- | Low -- °F
--% Chance of Precip.
Yesterday
High -- | Low -- °F
Precip. -- Inch
6:36 AM 5:53 PM
Waxing Gibbous, 98% visible
Tekanan 30.15 Inch
Jarak Pandang 6.2 Mil
Awan Mendung Tidak Merata 2700 ft
Berawan 4300 ft
Angin Dingin 49 °F
Titik Embun 39 °F
Kelembaban 69%
Rainfall 0.00 Inch
Snow Depth Not available.
UV 2 out of 12
Pollen Not available.
Air Quality Not available.
Flu Activity Not available.
METAR LDRI 041100Z 33004KT 9999 -RA SCT027 OVC043 08/06 Q1021

More Conditions Fewer Conditions

Tekanan 30.15 Inch
Jarak Pandang 6.2 Mil
Awan Mendung Tidak Merata 2700 ft
Berawan 4300 ft
Angin Dingin 49 °F
Titik Embun 39 °F
Kelembaban 69%
Rainfall 0.00 Inch
Snow Depth Not available.
UV 2 out of 12
Pollen Not available.
Air Quality Not available.
Flu Activity Not available.
METAR LDRI 041100Z 33004KT 9999 -RA SCT027 OVC043 08/06 Q1021

More Conditions Fewer Conditions

10-Day Weather Forecast

Almanac

Astronomi

Mar. 04, 2015 Rise Set
Actual Time
Civil Twilight
Nautical Twilight
Astronomical Twilight
Moon
Length Of Visible Light
Lama Satu Hari
Tomorrow will be .
, % of the Moon is Illuminated

Today's Extremes

Country Highs Country Lows

Community

WunderPhotos

Upload Photos

1,802,434 photos uploaded!

WunderBlogs® & News

Nearby

Air Quality

  Air Quality AQ Index Pollutant
Not available.

Snow Depth

Station Depth Elevation

Earthquake Activity

City Distance Mag. Time & Date
Minimum magnitude displayed is 2.5.

Coastal Water Temperatures

Lokasi Temperatur

Nearby Weather Stations